createdAt,value
2022-07-28T00:10:57.809Z,100293.25
2022-07-28T00:25:49.204Z,100286.03
2022-07-28T00:40:58.685Z,100288.05
2022-07-28T00:56:03.491Z,100271.73
2022-07-28T01:10:47.390Z,100260.73
2022-07-28T01:26:12.813Z,100256.36
2022-07-28T01:41:10.424Z,100232.94
2022-07-28T01:56:02.031Z,100235.05
2022-07-28T02:11:11.954Z,100229.88
2022-07-28T02:26:09.132Z,100209.95
2022-07-28T02:40:59.915Z,100203.84
2022-07-28T02:55:52.003Z,100193.46
2022-07-28T03:11:01.926Z,100201.41
2022-07-28T03:25:46.373Z,100218.20
2022-07-28T03:40:39.462Z,100212.71
2022-07-28T03:55:40.060Z,100215.58
2022-07-28T04:10:33.166Z,100206.07
2022-07-28T04:25:23.602Z,100197.05
2022-07-28T04:40:14.047Z,100205.78
2022-07-28T04:55:05.516Z,100204.95
2022-07-28T05:09:56.670Z,100202.27
2022-07-28T05:24:48.769Z,100201.86
2022-07-28T05:39:40.324Z,100208.78
2022-07-28T05:54:31.811Z,100210.10
2022-07-28T06:09:24.231Z,100207.88
2022-07-28T06:24:16.683Z,100205.74
2022-07-28T06:39:08.685Z,100209.28
2022-07-28T06:54:00.432Z,100209.11
2022-07-28T07:08:52.340Z,100194.66
2022-07-28T07:23:44.479Z,100193.75
2022-07-28T07:38:36.468Z,100177.62
2022-07-28T07:53:29.744Z,100179.87
2022-07-28T08:08:21.778Z,100164.98
2022-07-28T08:23:14.409Z,100163.56
2022-07-28T08:38:07.189Z,100168.97
2022-07-28T08:53:00.648Z,100147.91
2022-07-28T09:07:55.041Z,100142.27
2022-07-28T09:23:01.332Z,100135.58
2022-07-28T09:37:58.677Z,100127.49
2022-07-28T09:52:51.500Z,100109.98
2022-07-28T10:07:50.526Z,100086.41
2022-07-28T10:22:47.706Z,100079.59
2022-07-28T10:37:52.394Z,100076.03
2022-07-28T10:52:53.608Z,100063.97
2022-07-28T11:07:42.653Z,100060.52
2022-07-28T11:22:36.263Z,100042.16
2022-07-28T11:37:29.355Z,100022.50
2022-07-28T11:52:22.605Z,100015.80
2022-07-28T12:07:15.373Z,100008.19
2022-07-28T12:22:14.942Z,99990.84
2022-07-28T12:37:05.487Z,99957.70
2022-07-28T12:51:58.556Z,99954.09
2022-07-28T13:06:57.375Z,99946.66
2022-07-28T13:21:56.642Z,99934.59
2022-07-28T13:36:45.123Z,99929.92
2022-07-28T13:51:38.304Z,99901.37
2022-07-28T14:06:35.343Z,99887.55
2022-07-28T14:21:28.587Z,99875.67
2022-07-28T14:36:20.857Z,99882.14
2022-07-28T14:51:13.811Z,99871.81
2022-07-28T15:06:09.103Z,99857.15
2022-07-28T15:21:04.687Z,99848.76
2022-07-28T15:36:00.221Z,99843.14
2022-07-28T15:50:55.501Z,99826.98
2022-07-28T16:36:08.243Z,99804.64
2022-07-28T16:51:00.341Z,99804.30
2022-07-28T17:05:53.425Z,99816.95
2022-07-28T17:20:48.384Z,99811.19
2022-07-28T17:35:39.933Z,99815.66
2022-07-28T17:50:31.707Z,99833.34
2022-07-28T18:20:24.257Z,99840.37
2022-07-28T18:50:14.229Z,99831.48
2022-07-28T19:05:01.224Z,99849.42
2022-07-28T19:34:54.129Z,99864.75
2022-07-28T19:49:44.948Z,99891.45
2022-07-28T20:04:36.324Z,99924.20
2022-07-28T20:19:28.327Z,99939.73
2022-07-28T21:18:53.062Z,100018.00
2022-07-28T21:33:44.771Z,100026.83
2022-07-28T21:48:36.408Z,100030.66
2022-07-28T22:03:31.263Z,100025.92
2022-07-28T22:18:22.337Z,100030.16
2022-07-28T22:33:12.463Z,100029.44
2022-07-28T22:48:05.962Z,100013.46
2022-07-28T23:02:57.419Z,100017.14
2022-07-28T23:17:47.694Z,100005.24
2022-07-28T23:32:38.605Z,100006.99
2022-07-28T23:47:30.042Z,100005.75
